createdAt,value
2023-03-11T00:03:34.476Z,23.02
2023-03-11T00:07:37.895Z,22.58
2023-03-11T00:11:41.138Z,25.83
2023-03-11T00:15:47.270Z,21.58
2023-03-11T00:19:52.070Z,22.10
2023-03-11T00:23:55.449Z,22.23
2023-03-11T00:27:59.122Z,18.50
2023-03-11T00:32:02.066Z,24.88
2023-03-11T00:36:08.429Z,23.45
2023-03-11T00:40:14.623Z,23.23
2023-03-11T00:44:18.794Z,20.08
2023-03-11T00:48:21.966Z,23.08
2023-03-11T00:52:26.504Z,20.60
2023-03-11T00:56:29.701Z,18.95
2023-03-11T01:00:33.429Z,23.17
2023-03-11T01:04:36.482Z,20.77
2023-03-11T01:08:41.642Z,23.50
2023-03-11T01:12:44.827Z,19.95
2023-03-11T01:16:47.710Z,18.42
2023-03-11T01:20:51.141Z,21.35
2023-03-11T01:28:58.457Z,17.88
2023-03-11T01:33:01.359Z,16.90
2023-03-11T01:37:05.088Z,16.75
2023-03-11T01:41:11.636Z,20.20
2023-03-11T01:45:42.926Z,18.17
2023-03-11T01:49:45.732Z,18.67
2023-03-11T01:53:48.756Z,20.20
2023-03-11T01:57:54.507Z,18.20
2023-03-11T02:02:06.664Z,20.90
2023-03-11T02:06:13.012Z,19.10
2023-03-11T02:10:16.654Z,20.60
2023-03-11T02:14:21.974Z,18.30
2023-03-11T02:18:25.179Z,20.17
2023-03-11T02:22:30.271Z,20.42
2023-03-11T02:26:39.132Z,16.60
2023-03-11T02:30:45.132Z,17.20
2023-03-11T02:34:48.213Z,19.55
2023-03-11T02:38:51.127Z,17.80
2023-03-11T02:42:58.496Z,19.20
2023-03-11T02:47:03.358Z,18.48
2023-03-11T02:51:06.497Z,15.07
2023-03-11T02:55:12.199Z,16.05
2023-03-11T02:59:15.119Z,16.60
2023-03-11T03:03:19.673Z,13.70
2023-03-11T03:07:22.569Z,17.02
2023-03-11T03:11:25.577Z,19.67
2023-03-11T03:15:28.736Z,15.65
2023-03-11T03:19:33.001Z,14.15
2023-03-11T03:23:37.869Z,13.50
2023-03-11T03:27:40.788Z,14.07
2023-03-11T03:31:43.896Z,13.88
2023-03-11T03:35:49.784Z,17.20
2023-03-11T03:39:53.244Z,15.65
2023-03-11T03:43:58.556Z,13.57
2023-03-11T03:48:01.391Z,13.35
2023-03-11T03:52:06.820Z,11.93
2023-03-11T03:56:12.317Z,11.50
2023-03-11T04:00:17.060Z,11.70
2023-03-11T04:04:19.909Z,12.35
2023-03-11T04:08:24.866Z,11.25
2023-03-11T04:12:28.157Z,19.13
2023-03-11T04:16:31.203Z,9.85
2023-03-11T04:20:34.382Z,11.57
2023-03-11T04:24:39.198Z,12.05
2023-03-11T04:28:42.246Z,9.55
2023-03-11T04:32:45.318Z,7.53
2023-03-11T04:36:48.144Z,9.07
2023-03-11T04:40:52.277Z,6.78
2023-03-11T04:44:55.438Z,8.95
2023-03-11T04:48:58.656Z,7.75
2023-03-11T04:57:06.321Z,7.88
2023-03-11T05:01:09.216Z,9.20
2023-03-11T05:05:12.119Z,8.38
2023-03-11T05:09:15.316Z,8.98
2023-03-11T05:13:20.242Z,10.57
2023-03-11T05:17:25.048Z,8.50
2023-03-11T05:21:27.716Z,8.60
2023-03-11T05:25:31.219Z,8.32
2023-03-11T05:29:36.190Z,8.90
2023-03-11T05:33:39.328Z,11.00
2023-03-11T05:37:42.437Z,10.90
2023-03-11T05:41:45.309Z,9.25
2023-03-11T05:45:49.809Z,9.75
2023-03-11T05:49:52.751Z,11.15
2023-03-11T05:53:56.930Z,10.45
2023-03-11T05:58:00.215Z,10.45
2023-03-11T06:06:08.423Z,7.88
2023-03-11T06:10:12.880Z,13.70
2023-03-11T06:14:16.331Z,8.90
2023-03-11T06:22:23.147Z,10.27
2023-03-11T06:26:26.037Z,9.77
2023-03-11T06:30:29.087Z,12.45
2023-03-11T06:34:33.391Z,10.50
2023-03-11T06:38:37.490Z,9.82
2023-03-11T06:42:40.370Z,12.27
2023-03-11T06:46:45.856Z,11.10
2023-03-11T06:50:57.261Z,10.25
2023-03-11T06:55:00.096Z,9.80
2023-03-11T06:59:03.154Z,8.25
2023-03-11T07:03:06.201Z,8.80
2023-03-11T07:07:10.838Z,7.68
2023-03-11T07:11:16.930Z,6.63
2023-03-11T07:15:20.227Z,6.30
2023-03-11T07:19:23.634Z,7.78
2023-03-11T07:23:27.882Z,7.97
2023-03-11T07:27:31.035Z,10.25
2023-03-11T07:31:37.808Z,9.38
2023-03-11T07:35:40.949Z,7.43
2023-03-11T07:39:45.785Z,10.57
2023-03-11T07:43:49.000Z,10.10
2023-03-11T07:47:51.862Z,9.98
2023-03-11T07:51:55.175Z,11.63
2023-03-11T07:56:03.297Z,13.00
2023-03-11T08:00:07.008Z,13.63
2023-03-11T08:04:14.457Z,7.70
2023-03-11T08:08:17.672Z,16.70
2023-03-11T08:12:21.829Z,16.33
2023-03-11T08:16:27.248Z,15.48
2023-03-11T08:20:30.268Z,16.30
2023-03-11T08:24:33.180Z,14.55
2023-03-11T08:28:38.269Z,9.80
2023-03-11T08:32:41.249Z,13.73
2023-03-11T08:36:45.019Z,14.68
2023-03-11T08:40:48.445Z,12.68
2023-03-11T08:49:00.876Z,13.50
2023-03-11T08:53:04.855Z,12.23
2023-03-11T08:57:08.092Z,10.55
2023-03-11T09:01:13.731Z,7.30
2023-03-11T09:05:17.067Z,5.95
2023-03-11T09:09:20.950Z,7.25
2023-03-11T09:13:24.095Z,6.03
2023-03-11T09:17:28.631Z,6.55
2023-03-11T09:21:31.610Z,6.72
2023-03-11T09:25:37.466Z,5.07
2023-03-11T09:29:41.061Z,6.43
2023-03-11T09:33:45.641Z,6.45
2023-03-11T09:37:50.567Z,14.43
2023-03-11T09:41:58.861Z,19.88
2023-03-11T09:46:17.155Z,23.40
2023-03-11T09:50:31.380Z,19.30
2023-03-11T09:54:41.922Z,12.85
2023-03-11T09:58:48.138Z,17.33
2023-03-11T10:02:55.607Z,15.75
2023-03-11T10:07:02.594Z,14.10
2023-03-11T10:11:17.978Z,7.88
2023-03-11T10:15:30.090Z,5.88
2023-03-11T10:19:46.609Z,8.60
2023-03-11T10:24:15.769Z,7.88
2023-03-11T10:28:21.693Z,9.90
2023-03-11T10:32:31.756Z,8.52
2023-03-11T10:36:40.652Z,8.82
2023-03-11T10:40:49.843Z,6.63
2023-03-11T10:44:54.573Z,6.10
2023-03-11T10:48:59.726Z,6.60
2023-03-11T10:53:09.764Z,8.32
2023-03-11T10:57:25.828Z,6.88
2023-03-11T11:01:30.513Z,6.60
2023-03-11T11:05:34.731Z,6.50
2023-03-11T11:09:37.322Z,8.93
2023-03-11T11:13:57.821Z,5.95
2023-03-11T11:18:03.174Z,7.93
2023-03-11T11:22:06.899Z,7.13
2023-03-11T11:26:18.819Z,8.32
2023-03-11T11:30:24.009Z,4.72
2023-03-11T11:34:31.556Z,10.85
2023-03-11T11:38:34.951Z,6.10
2023-03-11T11:42:39.438Z,7.28
2023-03-11T11:46:48.699Z,8.50
2023-03-11T11:50:55.911Z,7.50
2023-03-11T11:55:03.275Z,9.05
2023-03-11T11:59:10.987Z,8.40
2023-03-11T12:03:34.445Z,9.45
2023-03-11T12:07:47.885Z,11.00
2023-03-11T12:11:56.712Z,11.10
2023-03-11T12:16:04.808Z,5.50
2023-03-11T12:20:15.632Z,9.02
2023-03-11T12:24:34.410Z,10.48
2023-03-11T12:28:46.421Z,11.75
2023-03-11T12:32:53.302Z,7.68
2023-03-11T12:37:03.470Z,13.70
2023-03-11T12:41:09.071Z,7.72
2023-03-11T12:45:51.186Z,12.77
2023-03-11T12:49:56.272Z,8.73
2023-03-11T12:54:01.055Z,14.85
2023-03-11T12:58:23.964Z,8.25
2023-03-11T13:02:43.963Z,9.10
2023-03-11T13:07:14.290Z,9.90
2023-03-11T13:11:38.305Z,7.22
2023-03-11T13:15:43.224Z,10.23
2023-03-11T13:19:51.886Z,11.18
2023-03-11T13:24:14.873Z,8.77
2023-03-11T13:29:02.141Z,15.63
2023-03-11T13:33:23.341Z,9.05
2023-03-11T13:37:37.880Z,5.57
2023-03-11T13:41:44.457Z,8.57
2023-03-11T13:45:52.824Z,7.30
2023-03-11T13:50:04.297Z,10.73
2023-03-11T13:54:23.608Z,7.30
2023-03-11T13:58:29.904Z,12.43
2023-03-11T14:02:33.314Z,10.73
2023-03-11T14:06:37.927Z,7.95
2023-03-11T14:10:41.414Z,7.13
2023-03-11T14:14:50.729Z,11.45
2023-03-11T14:19:04.844Z,10.95
2023-03-11T14:23:20.105Z,10.43
2023-03-11T14:27:23.161Z,10.52
2023-03-11T14:31:32.225Z,9.32
2023-03-11T14:35:39.494Z,8.90
2023-03-11T14:39:47.676Z,8.00
2023-03-11T14:43:55.625Z,8.48
2023-03-11T14:48:05.118Z,5.65
2023-03-11T14:52:15.357Z,6.05
2023-03-11T14:56:23.211Z,5.97
2023-03-11T15:00:30.131Z,5.10
2023-03-11T15:04:38.407Z,8.55
2023-03-11T15:08:46.604Z,6.40
2023-03-11T15:12:51.280Z,10.10
2023-03-11T15:16:55.908Z,7.13
2023-03-11T15:21:05.372Z,7.32
2023-03-11T15:25:18.963Z,4.57
2023-03-11T15:29:26.940Z,7.97
2023-03-11T15:33:35.194Z,7.75
2023-03-11T15:37:41.238Z,5.88
2023-03-11T15:41:45.334Z,8.07
2023-03-11T15:45:51.486Z,4.40
2023-03-11T15:49:54.627Z,11.35
2023-03-11T15:53:57.964Z,10.27
2023-03-11T15:58:06.867Z,6.57
2023-03-11T16:02:22.012Z,4.95
2023-03-11T16:06:25.750Z,7.55
2023-03-11T16:10:30.015Z,8.10
2023-03-11T16:14:33.250Z,6.68
2023-03-11T16:18:37.749Z,5.18
2023-03-11T16:22:45.626Z,6.30
2023-03-11T16:26:53.624Z,6.05
2023-03-11T16:30:56.525Z,5.90
2023-03-11T16:35:01.105Z,4.88
2023-03-11T16:39:04.287Z,5.18
2023-03-11T16:43:09.256Z,4.20
2023-03-11T16:47:12.514Z,5.15
2023-03-11T16:51:16.821Z,7.15
2023-03-11T16:55:20.115Z,7.50
2023-03-11T16:59:23.085Z,8.82
2023-03-11T17:03:27.540Z,10.38
2023-03-11T17:07:40.144Z,8.27
2023-03-11T17:11:43.048Z,10.48
2023-03-11T17:15:45.923Z,11.35
2023-03-11T17:19:49.319Z,6.13
2023-03-11T17:23:54.491Z,11.50
2023-03-11T17:27:57.646Z,9.40
2023-03-11T17:32:01.091Z,4.75
2023-03-11T17:36:05.450Z,8.75
2023-03-11T17:40:11.672Z,6.53
2023-03-11T17:44:14.871Z,8.25
2023-03-11T17:48:18.239Z,9.45
2023-03-11T17:52:21.990Z,6.88
2023-03-11T17:56:27.353Z,4.35
2023-03-11T18:00:30.652Z,5.80
2023-03-11T18:04:35.130Z,3.13
2023-03-11T18:08:40.987Z,4.03
2023-03-11T18:12:48.662Z,7.22
2023-03-11T18:16:51.877Z,3.63
2023-03-11T18:20:55.262Z,4.05
2023-03-11T18:24:57.943Z,3.78
2023-03-11T18:29:02.882Z,6.95
2023-03-11T18:33:06.093Z,5.70
2023-03-11T18:37:09.356Z,5.25
2023-03-11T18:41:12.365Z,5.63
2023-03-11T18:45:20.080Z,3.95
2023-03-11T18:49:23.134Z,5.20
2023-03-11T18:53:26.297Z,4.50
2023-03-11T18:57:29.728Z,5.30
2023-03-11T19:01:34.723Z,6.15
2023-03-11T19:05:38.018Z,3.25
2023-03-11T19:09:40.825Z,5.30
2023-03-11T19:13:48.046Z,2.95
2023-03-11T19:18:05.784Z,3.92
2023-03-11T19:22:08.969Z,5.82
2023-03-11T19:26:11.775Z,4.30
2023-03-11T19:30:15.778Z,6.68
2023-03-11T19:34:21.644Z,5.47
2023-03-11T19:38:25.214Z,4.93
2023-03-11T19:42:28.126Z,4.65
2023-03-11T19:46:34.791Z,4.03
2023-03-11T19:50:39.453Z,4.65
2023-03-11T19:54:42.648Z,5.57
2023-03-11T19:58:45.736Z,3.15
2023-03-11T20:02:48.133Z,3.40
2023-03-11T20:06:52.525Z,2.97
2023-03-11T20:10:55.432Z,3.22
2023-03-11T20:14:58.473Z,7.63
2023-03-11T20:19:01.655Z,6.15
2023-03-11T20:23:06.012Z,5.55
2023-03-11T20:27:09.147Z,5.25
2023-03-11T20:31:14.587Z,4.35
2023-03-11T20:35:18.538Z,4.38
2023-03-11T20:39:22.945Z,7.22
2023-03-11T20:43:25.909Z,5.88
2023-03-11T20:47:28.883Z,6.93
2023-03-11T20:51:32.249Z,5.70
2023-03-11T20:55:41.054Z,5.72
2023-03-11T20:59:44.343Z,6.75
2023-03-11T21:03:47.208Z,9.07
2023-03-11T21:07:50.310Z,10.15
2023-03-11T21:11:55.087Z,9.23
2023-03-11T21:15:59.003Z,5.97
2023-03-11T21:20:04.101Z,9.70
2023-03-11T21:24:08.244Z,5.75
2023-03-11T21:28:13.699Z,2.63
2023-03-11T21:32:17.107Z,7.18
2023-03-11T21:36:20.616Z,6.18
2023-03-11T21:40:23.937Z,11.63
2023-03-11T21:44:29.049Z,10.85
2023-03-11T21:48:32.447Z,7.25
2023-03-11T21:52:35.762Z,5.32
2023-03-11T21:56:39.075Z,6.70
2023-03-11T22:00:44.287Z,3.83
2023-03-11T22:04:47.181Z,6.45
2023-03-11T22:09:00.734Z,6.10
2023-03-11T22:13:14.647Z,6.80
2023-03-11T22:17:28.532Z,7.22
2023-03-11T22:21:37.794Z,9.60
2023-03-11T22:25:42.207Z,4.72
2023-03-11T22:29:45.114Z,5.28
2023-03-11T22:33:49.057Z,10.98
2023-03-11T22:37:52.183Z,5.57
2023-03-11T22:41:55.986Z,10.10
2023-03-11T22:46:02.495Z,8.57
2023-03-11T22:50:17.547Z,7.38
2023-03-11T22:54:29.679Z,12.63
2023-03-11T22:58:40.179Z,10.10
2023-03-11T23:02:46.285Z,10.02
2023-03-11T23:06:51.653Z,12.38
2023-03-11T23:10:54.709Z,13.60
2023-03-11T23:14:57.737Z,9.95
2023-03-11T23:19:01.334Z,12.43
2023-03-11T23:23:05.999Z,6.80
2023-03-11T23:27:08.978Z,11.13
2023-03-11T23:31:13.919Z,11.65
2023-03-11T23:35:17.137Z,10.10
2023-03-11T23:39:21.397Z,13.95
2023-03-11T23:43:24.010Z,7.32
2023-03-11T23:47:27.077Z,7.82
2023-03-11T23:51:30.293Z,6.13
2023-03-11T23:55:38.852Z,10.15
2023-03-11T23:59:41.802Z,9.85
